Time;durP1;ratioP1;P1;durP2;ratioP2;P2;SDS_P1;SDS_P2;PMS_P1;PMS_P2;Temp;Humidity;BMP_temperature;BMP_pressure;BME280_temperature;BME280_humidity;BME280_pressure;Samples;Min_cycle;Max_cycle;Signal;HPM_P1;HPM_P2
2022/01/14 00:00:44;;;;;;;17.50;11.90;;;;;;;4.99;89.50;100942.45;87695;1283;88857;-75
2022/01/14 00:02:49;;;;;;;15.70;11.00;;;;;;;4.99;89.51;100936.23;87707;1283;93600;-58
2022/01/14 00:04:55;;;;;;;18.70;10.20;;;;;;;4.99;89.48;100947.16;87571;1283;79148;-58
2022/01/14 00:07:00;;;;;;;15.80;10.00;;;;;;;4.98;89.56;100951.60;87679;1283;83202;-76
2022/01/14 00:09:08;;;;;;;17.30;10.30;;;;;;;5.03;89.52;100949.73;87524;1284;99700;-76
2022/01/14 00:11:16;;;;;;;17.40;10.40;;;;;;;5.05;89.51;100943.99;87715;1283;89193;-76
2022/01/14 00:13:47;;;;;;;20.60;11.00;;;;;;;5.06;89.71;100945.34;87585;1284;93420;-77
2022/01/14 00:15:56;;;;;;;19.70;12.20;;;;;;;5.07;89.61;100942.61;87573;1284;77717;-78
2022/01/14 00:18:02;;;;;;;19.30;11.80;;;;;;;5.08;89.55;100943.23;87557;1285;81938;-78
2022/01/14 00:20:14;;;;;;;17.60;11.20;;;;;;;5.08;89.51;100935.20;87707;1283;99085;-77
2022/01/14 00:22:19;;;;;;;19.00;11.00;;;;;;;5.07;89.14;100929.23;87553;1284;88642;-77
2022/01/14 00:31:37;;;;;;;15.40;10.10;;;;;;;5.06;89.34;100924.71;87563;1284;94024;-75
2022/01/14 00:31:47;;;;;;;;;;;;;;;5.06;89.22;100914.69;87602;1284;100268;-77
2022/01/14 00:33:53;;;;;;;18.10;10.90;;;;;;;5.05;89.26;100907.81;87660;1283;87458;-77
2022/01/14 00:35:59;;;;;;;16.50;11.60;;;;;;;5.06;89.45;100910.23;87575;1284;95877;-77
2022/01/14 00:38:08;;;;;;;21.00;12.70;;;;;;;5.06;89.15;100907.59;87693;1283;79478;-59
2022/01/14 00:40:17;;;;;;;17.80;10.90;;;;;;;5.04;89.28;100900.02;87721;1283;80225;-59
2022/01/14 00:42:23;;;;;;;18.00;10.70;;;;;;;5.02;89.10;100899.47;87581;1284;100396;-76
2022/01/14 00:44:28;;;;;;;14.70;9.40;;;;;;;4.98;88.97;100889.14;87559;1284;89184;-76
2022/01/14 00:46:34;;;;;;;15.00;9.40;;;;;;;4.97;89.21;100886.06;87669;1283;93129;-58
2022/01/14 00:48:40;;;;;;;14.30;9.50;;;;;;;4.96;89.25;100887.20;87690;1284;80250;-60
2022/01/14 00:50:48;;;;;;;14.70;9.90;;;;;;;5.00;89.20;100883.88;87565;1284;82250;-59
2022/01/14 00:52:54;;;;;;;13.90;10.20;;;;;;;5.04;89.34;100881.09;87693;1285;100312;-78
2022/01/14 00:55:00;;;;;;;14.40;10.00;;;;;;;5.08;89.27;100879.90;87560;1284;89527;-77
2022/01/14 00:57:27;;;;;;;16.10;11.50;;;;;;;5.09;89.30;100878.16;87651;1283;94654;-78
2022/01/14 00:59:33;;;;;;;17.40;10.70;;;;;;;5.10;89.10;100874.52;87540;1284;79703;-77
2022/01/14 01:01:43;;;;;;;18.50;11.30;;;;;;;5.10;89.03;100875.41;87584;1284;80064;-59
2022/01/14 01:03:48;;;;;;;18.40;11.70;;;;;;;5.04;88.95;100880.73;87688;1284;98101;-58
2022/01/14 01:05:54;;;;;;;21.90;12.40;;;;;;;4.99;88.97;100879.96;87546;1284;88760;-58
2022/01/14 01:08:05;;;;;;;18.60;11.50;;;;;;;4.96;88.84;100876.13;87694;1284;95651;-77
2022/01/14 01:10:13;;;;;;;16.30;11.60;;;;;;;4.92;88.93;100876.90;87677;1284;82332;-77
2022/01/14 01:12:32;;;;;;;18.50;11.80;;;;;;;4.89;88.98;100868.97;87555;1284;79876;-58
2022/01/14 01:14:48;;;;;;;18.70;11.70;;;;;;;4.87;89.08;100863.23;87687;1283;100888;-60
2022/01/14 01:16:54;;;;;;;19.00;11.30;;;;;;;4.93;89.06;100859.45;87711;1284;88257;-77
2022/01/14 01:19:00;;;;;;;20.80;12.10;;;;;;;4.92;89.08;100853.55;87690;1285;95394;-77
2022/01/14 01:21:06;;;;;;;17.40;11.40;;;;;;;4.93;89.10;100849.34;87567;1284;78134;-65
2022/01/14 01:23:15;;;;;;;19.60;11.80;;;;;;;4.93;88.93;100836.48;87700;1284;83304;-57
2022/01/14 01:25:24;;;;;;;19.30;11.50;;;;;;;4.94;88.92;100835.80;87577;1284;100454;-58
2022/01/14 01:27:37;;;;;;;18.70;11.20;;;;;;;4.91;88.95;100833.98;87703;1286;88416;-59
2022/01/14 01:29:52;;;;;;;17.20;10.00;;;;;;;4.91;88.96;100832.91;87681;1284;94123;-58
2022/01/14 01:31:57;;;;;;;22.30;12.10;;;;;;;4.92;89.01;100831.02;87482;1286;82650;-77
2022/01/14 01:34:03;;;;;;;17.80;10.50;;;;;;;4.93;88.93;100834.00;87553;1284;79949;-77
2022/01/14 01:36:09;;;;;;;17.80;10.90;;;;;;;4.97;88.97;100829.33;87701;1284;100977;-76
2022/01/14 01:38:17;;;;;;;18.20;11.40;;;;;;;5.00;88.90;100825.93;87531;1284;87560;-77
2022/01/14 01:40:25;;;;;;;18.40;12.00;;;;;;;4.98;88.91;100833.91;87679;1284;93892;-76
2022/01/14 01:42:32;;;;;;;22.60;12.30;;;;;;;4.96;88.91;100830.45;87523;1285;80623;-76
2022/01/14 01:44:41;;;;;;;19.50;12.70;;;;;;;4.90;88.97;100831.21;87745;1284;81069;-77
2022/01/14 01:46:48;;;;;;;19.20;12.20;;;;;;;4.86;88.96;100830.57;87574;1284;98927;-77
2022/01/14 01:48:57;;;;;;;16.60;10.90;;;;;;;4.84;88.88;100828.91;87695;1284;88242;-77
2022/01/14 01:51:12;;;;;;;18.90;11.70;;;;;;;4.83;88.85;100828.10;87549;1284;94872;-76
2022/01/14 01:53:18;;;;;;;20.10;10.90;;;;;;;4.83;88.79;100816.78;87546;1284;81376;-76
2022/01/14 01:55:24;;;;;;;17.70;10.00;;;;;;;4.84;88.82;100813.61;87688;1283;83353;-78
2022/01/14 01:57:30;;;;;;;18.90;11.70;;;;;;;4.87;88.78;100821.20;87719;1284;100765;-59
2022/01/14 01:59:36;;;;;;;19.60;11.30;;;;;;;4.88;88.84;100812.33;87670;1284;89481;-58
2022/01/14 02:01:45;;;;;;;20.70;12.00;;;;;;;4.91;88.76;100808.30;87587;1283;94642;-77
2022/01/14 02:03:52;;;;;;;17.00;11.70;;;;;;;4.88;88.75;100801.98;87660;1284;77891;-77
2022/01/14 02:05:59;;;;;;;19.20;12.20;;;;;;;4.88;88.90;100798.92;87552;1284;82668;-77
2022/01/14 02:08:09;;;;;;;17.90;11.40;;;;;;;4.84;88.83;100792.58;87690;1284;99290;-59
2022/01/14 02:10:19;;;;;;;18.50;10.60;;;;;;;4.82;88.80;100784.36;87676;1284;88955;-58
2022/01/14 02:12:33;;;;;;;13.60;8.60;;;;;;;4.80;88.86;100777.89;87540;1284;95245;-59
2022/01/14 02:14:54;;;;;;;15.10;9.30;;;;;;;4.79;88.88;100773.37;87671;1284;80383;-59
2022/01/14 02:17:28;;;;;;;14.50;8.10;;;;;;;4.83;89.03;100772.45;87565;1284;81793;-78
2022/01/14 02:19:44;;;;;;;13.40;8.10;;;;;;;4.88;89.06;100762.19;87677;1284;100488;-77
2022/01/14 02:22:12;;;;;;;16.90;8.30;;;;;;;4.94;89.05;100758.41;87669;1285;89828;-78
2022/01/14 02:24:34;;;;;;;16.60;8.90;;;;;;;4.98;89.14;100758.36;87662;1284;95452;-79
2022/01/14 02:26:51;;;;;;;16.20;8.60;;;;;;;5.02;88.98;100756.69;87498;1284;78466;-80
2022/01/14 02:29:00;;;;;;;14.30;8.80;;;;;;;5.03;89.05;100757.52;87697;1285;84120;-79
2022/01/14 02:31:09;;;;;;;19.00;8.90;;;;;;;5.02;88.96;100750.48;87685;1285;101023;-64
2022/01/14 02:33:19;;;;;;;16.80;8.60;;;;;;;4.99;88.91;100741.17;87687;1284;87849;-78
2022/01/14 02:35:25;;;;;;;19.80;8.70;;;;;;;4.98;89.13;100735.48;87560;1284;92713;-77
2022/01/14 02:37:34;;;;;;;13.80;9.00;;;;;;;4.98;89.22;100729.27;87673;1284;79441;-59
2022/01/14 02:39:41;;;;;;;16.30;8.60;;;;;;;5.00;89.09;100727.70;87506;1286;83856;-59
2022/01/14 02:41:50;;;;;;;14.00;7.90;;;;;;;5.01;89.26;100716.88;87550;1284;99079;-79
2022/01/14 02:44:02;;;;;;;12.80;7.20;;;;;;;5.06;89.13;100716.86;87546;1284;87890;-77
2022/01/14 02:46:09;;;;;;;16.70;9.30;;;;;;;5.11;89.18;100707.48;87568;1284;94540;-76
2022/01/14 02:48:14;;;;;;;14.20;8.80;;;;;;;5.10;89.35;100708.97;87680;1284;78831;-77
2022/01/14 02:50:22;;;;;;;14.30;8.50;;;;;;;5.13;89.19;100704.43;87556;1284;81453;-76
2022/01/14 02:52:42;;;;;;;15.40;8.80;;;;;;;5.09;89.17;100697.55;87552;1284;99544;-76
2022/01/14 02:55:02;;;;;;;12.20;7.90;;;;;;;5.05;89.32;100691.84;87689;1284;89597;-76
2022/01/14 02:57:09;;;;;;;14.50;8.50;;;;;;;5.04;89.19;100693.16;87551;1285;94287;-59
2022/01/14 02:59:20;;;;;;;13.00;8.20;;;;;;;5.02;89.26;100687.86;87675;1284;81322;-59
2022/01/14 03:01:27;;;;;;;13.30;7.10;;;;;;;5.02;89.17;100683.70;87571;1284;83436;-59
2022/01/14 03:03:37;;;;;;;15.40;8.20;;;;;;;5.03;89.28;100682.73;87664;1284;99630;-59
2022/01/14 03:05:43;;;;;;;17.10;8.10;;;;;;;5.08;89.31;100678.63;87534;1284;89257;-58
2022/01/14 03:07:50;;;;;;;10.90;7.10;;;;;;;5.12;89.28;100680.82;87574;1284;94233;-58
2022/01/14 03:09:59;;;;;;;16.00;8.30;;;;;;;5.10;89.41;100676.54;87531;1284;78228;-59
2022/01/14 03:12:06;;;;;;;12.30;7.00;;;;;;;5.10;89.53;100670.31;87696;1283;82920;-77
2022/01/14 03:14:15;;;;;;;13.70;7.60;;;;;;;5.08;89.37;100670.44;87580;1284;99432;-76
2022/01/14 03:16:22;;;;;;;11.70;8.10;;;;;;;5.06;89.49;100678.14;87754;1284;87591;-75
2022/01/14 03:18:40;;;;;;;12.60;7.90;;;;;;;5.02;89.54;100675.38;87580;1284;93834;-77
2022/01/14 03:20:52;;;;;;;11.80;6.70;;;;;;;4.98;89.34;100674.36;87694;1283;78493;-76
2022/01/14 03:23:05;;;;;;;13.00;7.30;;;;;;;4.95;89.33;100678.31;87571;1284;82982;-58
2022/01/14 03:27:39;;;;;;;9.50;6.20;;;;;;;5.01;89.57;100692.59;87716;1283;89433;-60
2022/01/14 03:29:45;;;;;;;10.80;6.60;;;;;;;5.01;89.46;100696.50;87558;1284;94852;-59
2022/01/14 03:31:51;;;;;;;10.60;6.70;;;;;;;5.02;89.59;100705.29;87734;1283;82549;-77
2022/01/14 03:34:00;;;;;;;13.10;6.50;;;;;;;5.03;89.53;100706.29;87563;1284;80317;-76
2022/01/14 03:36:08;;;;;;;10.20;6.60;;;;;;;5.04;89.62;100710.64;87735;1283;100090;-66
2022/01/14 03:38:13;;;;;;;13.50;6.80;;;;;;;5.01;89.70;100706.28;87552;1284;88053;-59
2022/01/14 03:40:19;;;;;;;14.50;7.70;;;;;;;5.00;89.78;100714.22;87707;1283;94865;-58
2022/01/14 03:42:25;;;;;;;10.00;6.80;;;;;;;5.03;89.44;100720.08;87703;1284;78541;-63
2022/01/14 03:44:31;;;;;;;12.20;6.70;;;;;;;5.02;89.39;100717.48;87493;1285;83147;-58
2022/01/14 03:46:37;;;;;;;12.00;6.30;;;;;;;5.00;89.60;100718.57;87721;1283;100898;-76
2022/01/14 03:48:43;;;;;;;10.90;6.00;;;;;;;5.00;89.72;100707.86;87553;1284;89089;-77
2022/01/14 03:50:52;;;;;;;9.40;5.60;;;;;;;4.96;89.62;100695.73;87528;1284;94687;-76
2022/01/14 03:53:01;;;;;;;11.80;6.10;;;;;;;5.03;89.66;100693.61;87549;1284;80184;-77
2022/01/14 03:55:12;;;;;;;9.60;6.30;;;;;;;5.00;89.86;100702.09;87543;1284;82063;-76
2022/01/14 03:57:17;;;;;;;10.20;6.50;;;;;;;4.99;89.79;100700.09;87582;1284;98830;-58
2022/01/14 03:59:23;;;;;;;11.00;6.50;;;;;;;5.00;89.81;100703.55;87710;1283;87316;-59
2022/01/14 04:01:29;;;;;;;11.40;7.20;;;;;;;4.98;89.93;100700.00;87541;1284;94381;-58
2022/01/14 04:03:34;;;;;;;14.40;6.70;;;;;;;4.97;89.61;100702.05;87459;1283;335912;-58
2022/01/14 04:05:43;;;;;;;10.50;6.30;;;;;;;5.00;89.78;100703.52;87574;1284;81006;-58
2022/01/14 04:07:49;;;;;;;10.10;6.30;;;;;;;4.98;89.85;100704.67;87703;1283;99845;-59
2022/01/14 04:09:55;;;;;;;9.60;5.80;;;;;;;4.91;89.78;100693.88;87567;1284;89102;-58
2022/01/14 04:12:01;;;;;;;10.10;5.50;;;;;;;4.92;89.86;100683.65;87484;1286;94916;-77
2022/01/14 04:15:36;;;;;;;8.80;5.70;;;;;;;4.93;89.87;100688.13;87539;1284;82559;-77
2022/01/14 04:16:34;;;;;;;9.90;5.60;;;;;;;4.96;89.91;100678.09;87405;1287;81718;-59
2022/01/14 04:18:40;;;;;;;9.80;5.30;;;;;;;4.97;89.88;100684.25;87683;1283;99405;-59
2022/01/14 04:20:49;;;;;;;8.60;5.20;;;;;;;4.94;90.12;100675.23;87562;1284;87817;-59
2022/01/14 04:22:57;;;;;;;10.10;6.80;;;;;;;4.97;90.09;100677.08;87712;1283;95982;-78
2022/01/14 04:25:03;;;;;;;7.70;5.50;;;;;;;5.00;89.97;100677.31;87716;1283;79956;-76
2022/01/14 04:27:12;;;;;;;10.00;5.70;;;;;;;5.04;90.03;100672.63;87592;1284;81830;-77
2022/01/14 04:29:18;;;;;;;10.40;6.70;;;;;;;5.03;90.07;100655.80;87539;1284;100190;-75
2022/01/14 04:31:24;;;;;;;9.90;5.40;;;;;;;5.03;90.10;100660.98;87730;1283;88433;-59
2022/01/14 04:33:33;;;;;;;7.30;5.10;;;;;;;5.00;90.06;100649.64;87535;1284;93743;-58
2022/01/14 04:35:39;;;;;;;9.60;5.30;;;;;;;5.02;89.74;100646.55;87558;1284;80044;-58
2022/01/14 04:37:47;;;;;;;8.80;5.70;;;;;;;5.01;89.88;100641.34;87743;1283;82520;-77
2022/01/14 04:39:53;;;;;;;7.60;5.30;;;;;;;5.06;90.01;100630.84;87546;1284;99661;-76
2022/01/14 04:42:01;;;;;;;5.70;4.60;;;;;;;5.04;89.95;100629.40;87570;1284;89296;-58
2022/01/14 04:44:07;;;;;;;8.90;4.80;;;;;;;5.04;89.92;100619.95;87717;1283;95415;-59
2022/01/14 04:46:35;;;;;;;9.80;5.30;;;;;;;5.08;90.10;100616.03;87591;1284;80058;-59
2022/01/14 04:48:40;;;;;;;7.90;4.90;;;;;;;5.09;89.92;100603.42;87553;1284;81122;-58
2022/01/14 04:50:46;;;;;;;9.30;5.80;;;;;;;5.08;89.97;100594.45;87725;1284;100510;-59
2022/01/14 04:52:53;;;;;;;9.60;5.90;;;;;;;5.08;90.13;100596.75;87585;1284;88721;-74
2022/01/14 04:54:58;;;;;;;7.00;5.80;;;;;;;5.01;90.17;100594.96;87569;1284;93780;-73
2022/01/14 04:57:05;;;;;;;11.50;6.20;;;;;;;4.96;90.08;100599.56;87727;1284;79256;-58
2022/01/14 04:59:11;;;;;;;8.30;5.40;;;;;;;4.96;89.87;100597.89;87586;1284;83378;-58
2022/01/14 05:01:16;;;;;;;8.10;4.60;;;;;;;4.94;90.16;100601.40;87731;1283;98617;-58
2022/01/14 05:03:23;;;;;;;6.60;5.10;;;;;;;4.92;90.29;100609.72;87531;1284;88704;-58
2022/01/14 05:05:35;;;;;;;9.90;6.40;;;;;;;4.94;90.19;100605.45;87723;1284;94650;-58
2022/01/14 05:07:43;;;;;;;10.40;6.80;;;;;;;5.01;90.17;100602.98;87692;1284;80250;-58
2022/01/14 05:09:57;;;;;;;12.20;6.80;;;;;;;5.01;90.08;100584.36;87563;1284;81923;-57
2022/01/14 05:12:07;;;;;;;8.20;5.70;;;;;;;5.06;90.24;100586.05;87739;1283;99402;-77
2022/01/14 05:14:16;;;;;;;10.10;5.10;;;;;;;5.11;90.06;100579.70;87734;1283;86779;-76
2022/01/14 05:16:25;;;;;;;10.70;6.20;;;;;;;5.08;90.15;100575.33;87482;1287;94531;-58
2022/01/14 05:18:31;;;;;;;8.80;5.70;;;;;;;5.06;89.94;100570.73;87549;1284;81112;-58
2022/01/14 05:20:37;;;;;;;8.10;5.20;;;;;;;5.03;89.90;100569.23;87741;1284;79627;-58
2022/01/14 05:22:43;;;;;;;7.70;4.80;;;;;;;5.03;89.84;100568.88;87736;1284;98298;-58
2022/01/14 05:24:49;;;;;;;6.20;4.70;;;;;;;5.02;90.09;100557.96;87523;1284;88372;-58
2022/01/14 05:26:57;;;;;;;6.90;3.70;;;;;;;5.05;89.93;100554.73;87717;1284;95025;-73
2022/01/14 05:29:06;;;;;;;6.30;3.70;;;;;;;5.08;90.00;100555.33;87512;1284;80759;-58
2022/01/14 05:31:15;;;;;;;7.40;4.10;;;;;;;5.09;90.02;100554.14;87746;1284;81961;-59
2022/01/14 05:33:23;;;;;;;8.00;4.10;;;;;;;5.07;89.88;100558.33;87526;1284;101516;-75
2022/01/14 05:35:33;;;;;;;6.30;4.30;;;;;;;5.11;89.93;100561.48;87535;1284;89013;-57
2022/01/14 05:37:39;;;;;;;7.60;4.10;;;;;;;5.13;89.85;100553.98;87558;1284;94529;-77
2022/01/14 05:39:48;;;;;;;6.00;3.80;;;;;;;5.11;89.87;100548.80;87725;1284;80674;-74
2022/01/14 05:41:58;;;;;;;6.70;3.70;;;;;;;5.08;89.76;100548.59;87530;1284;81228;-59
2022/01/14 05:44:04;;;;;;;8.00;4.00;;;;;;;5.05;89.80;100548.16;87743;1284;99474;-61
2022/01/14 05:46:13;;;;;;;7.80;3.50;;;;;;;5.04;89.66;100543.75;87714;1284;89307;-60
2022/01/14 05:48:18;;;;;;;6.90;3.70;;;;;;;5.04;89.59;100542.14;87701;1284;95550;-61
2022/01/14 05:50:26;;;;;;;6.10;3.40;;;;;;;5.09;89.69;100544.66;87493;1284;80966;-59
2022/01/14 05:52:35;;;;;;;6.90;3.00;;;;;;;5.13;89.75;100542.33;87456;1286;83939;-59
2022/01/14 05:54:41;;;;;;;6.00;3.20;;;;;;;5.15;89.67;100533.72;87731;1284;99922;-59
2022/01/14 05:56:47;;;;;;;5.70;3.10;;;;;;;5.16;89.83;100534.87;87517;1284;88190;-59
2022/01/14 05:58:55;;;;;;;6.20;2.80;;;;;;;5.16;89.79;100529.39;87424;1286;95487;-65
2022/01/14 06:01:01;;;;;;;5.60;3.20;;;;;;;5.18;89.56;100530.63;87713;1284;79018;-58
2022/01/14 06:03:07;;;;;;;6.70;3.40;;;;;;;5.16;89.55;100531.63;87525;1284;83008;-59
2022/01/14 06:05:15;;;;;;;5.50;2.90;;;;;;;5.13;89.57;100532.66;87731;1284;98592;-73
2022/01/14 06:07:25;;;;;;;7.10;3.40;;;;;;;5.09;89.45;100519.90;87537;1284;87506;-74
2022/01/14 06:09:31;;;;;;;6.20;3.00;;;;;;;5.07;89.45;100517.63;87727;1283;95747;-74
2022/01/14 06:11:37;;;;;;;4.90;2.60;;;;;;;5.08;89.47;100519.45;87520;1284;79005;-58
2022/01/14 06:13:46;;;;;;;5.40;3.00;;;;;;;5.08;89.35;100524.13;87708;1284;79989;-58
2022/01/14 06:15:55;;;;;;;7.00;3.30;;;;;;;5.10;89.50;100525.09;87710;1284;100947;-60
2022/01/14 06:18:03;;;;;;;9.90;3.40;;;;;;;5.10;89.50;100522.81;87554;1284;87718;-60
2022/01/14 06:20:15;;;;;;;4.70;2.60;;;;;;;5.15;89.38;100517.88;87719;1284;95414;-60
2022/01/14 06:22:21;;;;;;;4.80;2.80;;;;;;;5.17;89.47;100514.96;87714;1284;78098;-78
2022/01/14 06:24:27;;;;;;;6.60;3.70;;;;;;;5.19;89.57;100503.67;87512;1284;83187;-76
2022/01/14 06:26:38;;;;;;;7.10;4.20;;;;;;;5.19;89.36;100497.47;87470;1284;99521;-60
2022/01/14 06:28:43;;;;;;;10.20;6.30;;;;;;;5.19;89.43;100500.28;87533;1284;88136;-61
2022/01/14 06:30:50;;;;;;;5.80;3.80;;;;;;;5.19;89.46;100494.95;87507;1284;93706;-60
2022/01/14 06:32:56;;;;;;;5.70;3.30;;;;;;;5.14;89.28;100498.32;87553;1284;78468;-76
2022/01/14 06:35:02;;;;;;;4.70;2.90;;;;;;;5.13;89.41;100503.61;87775;1283;81121;-75
2022/01/14 06:37:09;;;;;;;8.00;3.00;;;;;;;5.14;89.52;100496.17;87556;1284;100564;-70
2022/01/14 06:39:15;;;;;;;6.50;2.80;;;;;;;5.14;89.52;100494.55;87687;1284;87635;-59
2022/01/14 06:41:21;;;;;;;5.40;2.90;;;;;;;5.12;89.41;100492.25;87748;1284;95514;-60
2022/01/14 06:43:31;;;;;;;5.30;2.50;;;;;;;5.15;89.43;100500.91;87558;1284;81899;-59
2022/01/14 06:45:40;;;;;;;4.40;2.60;;;;;;;5.12;89.59;100515.84;87532;1284;82402;-60
2022/01/14 06:47:45;;;;;;;4.70;2.50;;;;;;;5.11;89.68;100514.47;87725;1284;99206;-76
2022/01/14 06:49:55;;;;;;;5.40;2.60;;;;;;;5.13;89.69;100512.52;87742;1284;88854;-75
2022/01/14 06:52:01;;;;;;;3.90;2.40;;;;;;;5.19;89.81;100503.86;87551;1284;95210;-75
2022/01/14 06:54:07;;;;;;;4.10;2.20;;;;;;;5.20;89.80;100499.72;87375;1287;79089;-76
2022/01/14 06:56:14;;;;;;;5.70;2.70;;;;;;;5.21;89.86;100493.67;87763;1284;82039;-61
2022/01/14 06:58:20;;;;;;;7.80;3.20;;;;;;;5.25;89.66;100493.98;87536;1284;100203;-60
2022/01/14 07:00:25;;;;;;;5.00;2.50;;;;;;;5.27;89.70;100490.95;87460;1284;89077;-58
2022/01/14 07:02:34;;;;;;;4.50;2.50;;;;;;;5.26;89.80;100492.32;87566;1284;95731;-60
2022/01/14 07:04:42;;;;;;;4.10;2.50;;;;;;;5.25;89.82;100499.88;87771;1284;78215;-75
2022/01/14 07:06:49;;;;;;;5.20;2.60;;;;;;;5.28;89.95;100495.31;87551;1284;81611;-59
2022/01/14 07:08:57;;;;;;;12.80;5.90;;;;;;;5.33;90.04;100499.24;87524;1284;98696;-60
2022/01/14 07:11:11;;;;;;;11.50;5.70;;;;;;;5.29;89.87;100490.77;87749;1284;89706;-59
2022/01/14 07:13:16;;;;;;;5.20;2.40;;;;;;;5.32;89.80;100481.46;87760;1283;94416;-69
2022/01/14 07:15:22;;;;;;;4.60;2.30;;;;;;;5.29;89.84;100477.81;87739;1284;80623;-70
2022/01/14 07:17:28;;;;;;;4.40;2.80;;;;;;;5.27;89.86;100470.79;87557;1284;82120;-61
2022/01/14 07:19:34;;;;;;;4.80;2.40;;;;;;;5.24;90.00;100462.16;87767;1284;100762;-59
2022/01/14 07:21:40;;;;;;;6.50;2.90;;;;;;;5.26;89.95;100464.40;87565;1284;87280;-60
2022/01/14 07:23:50;;;;;;;4.90;2.20;;;;;;;5.32;89.98;100473.46;87575;1284;94335;-58
2022/01/14 07:26:00;;;;;;;3.50;2.30;;;;;;;5.33;90.10;100466.20;87743;1283;80307;-61
2022/01/14 07:28:09;;;;;;;5.20;2.30;;;;;;;5.37;90.05;100469.55;87546;1284;82347;-59
2022/01/14 07:30:16;;;;;;;7.00;2.60;;;;;;;5.43;90.00;100472.23;87527;1284;99625;-59
2022/01/14 07:32:24;;;;;;;5.00;3.10;;;;;;;5.45;90.10;100471.79;87580;1284;88494;-73
2022/01/14 07:34:34;;;;;;;3.70;2.70;;;;;;;5.47;90.03;100467.66;87701;1283;94879;-72
2022/01/14 07:36:39;;;;;;;4.90;2.80;;;;;;;5.51;89.96;100469.91;87563;1284;80215;-60
2022/01/14 07:38:48;;;;;;;4.40;2.60;;;;;;;5.52;89.92;100464.84;87721;1283;82477;-59
2022/01/14 07:40:54;;;;;;;5.00;2.60;;;;;;;5.46;89.95;100474.92;87543;1283;98652;-65
2022/01/14 07:42:59;;;;;;;3.60;2.70;;;;;;;5.44;89.91;100468.70;87723;1283;89227;-70
2022/01/14 07:45:11;;;;;;;4.40;2.60;;;;;;;5.45;89.94;100470.01;87547;1284;95615;-70
2022/01/14 07:47:17;;;;;;;4.50;2.80;;;;;;;5.47;90.01;100461.29;87536;1284;80788;-59
2022/01/14 07:49:26;;;;;;;4.80;2.60;;;;;;;5.47;90.09;100463.77;87546;1284;82981;-59
2022/01/14 07:51:33;;;;;;;3.30;2.50;;;;;;;5.48;90.18;100469.06;87555;1284;99834;-59
2022/01/14 07:53:40;;;;;;;4.10;2.80;;;;;;;5.51;90.28;100460.30;87724;1283;89260;-61
2022/01/14 07:55:46;;;;;;;4.20;2.50;;;;;;;5.52;90.25;100456.64;87549;1284;94928;-58
2022/01/14 07:57:51;;;;;;;3.90;2.40;;;;;;;5.53;90.21;100456.92;87524;1284;82706;-60
2022/01/14 07:59:57;;;;;;;6.50;2.50;;;;;;;5.57;90.40;100452.02;87531;1284;81389;-60
2022/01/14 08:02:04;;;;;;;4.80;2.40;;;;;;;5.66;90.34;100441.58;87567;1284;101004;-60
2022/01/14 08:04:13;;;;;;;3.70;2.30;;;;;;;5.72;90.29;100415.79;87550;1284;89876;-59
2022/01/14 08:06:24;;;;;;;4.70;2.50;;;;;;;5.76;90.14;100421.25;87755;1284;95918;-59
2022/01/14 08:08:30;;;;;;;3.30;2.30;;;;;;;5.75;90.23;100418.13;87748;1284;79793;-59
2022/01/14 08:10:36;;;;;;;4.30;2.20;;;;;;;5.74;90.18;100411.11;87573;1284;80507;-59
2022/01/14 08:12:46;;;;;;;4.80;2.60;;;;;;;5.77;90.22;100415.63;87728;1283;99217;-59
2022/01/14 08:14:52;;;;;;;3.80;2.00;;;;;;;5.78;90.24;100406.17;87745;1284;87933;-58
2022/01/14 08:16:59;;;;;;;5.50;2.80;;;;;;;5.77;90.19;100403.80;87741;1284;94785;-67
2022/01/14 08:19:05;;;;;;;3.80;1.90;;;;;;;5.78;90.20;100401.35;87766;1284;80792;-67
2022/01/14 08:21:11;;;;;;;2.60;2.00;;;;;;;5.81;90.32;100402.87;87554;1284;83028;-66
2022/01/14 08:23:19;;;;;;;5.10;2.10;;;;;;;5.84;90.35;100404.52;87778;1284;98827;-69
2022/01/14 08:25:25;;;;;;;3.80;2.40;;;;;;;5.86;90.21;100399.45;87799;1284;88774;-69
2022/01/14 08:27:31;;;;;;;4.20;2.20;;;;;;;5.88;90.34;100395.39;87528;1284;95005;-59
2022/01/14 08:29:40;;;;;;;3.20;2.20;;;;;;;5.89;90.29;100383.63;87735;1283;80124;-58
2022/01/14 08:31:45;;;;;;;3.20;2.20;;;;;;;5.87;90.31;100392.27;87765;1284;81968;-58
2022/01/14 08:33:51;;;;;;;5.10;2.60;;;;;;;5.84;90.37;100402.14;87549;1284;99303;-59
2022/01/14 08:36:02;;;;;;;5.50;2.60;;;;;;;5.82;90.41;100407.23;87579;1284;87083;-60
2022/01/14 08:38:07;;;;;;;3.70;2.20;;;;;;;5.80;90.59;100399.80;87725;1284;95788;-59
2022/01/14 08:40:16;;;;;;;3.50;2.30;;;;;;;5.81;90.30;100393.20;87553;1284;81608;-59
2022/01/14 08:42:22;;;;;;;4.70;2.30;;;;;;;5.85;90.43;100376.86;87791;1284;80207;-66
2022/01/14 08:44:32;;;;;;;5.00;2.50;;;;;;;5.91;90.57;100383.61;87736;1283;101960;-66
2022/01/14 08:46:41;;;;;;;3.60;2.10;;;;;;;5.92;90.59;100391.55;87591;1284;88299;-67
2022/01/14 08:48:50;;;;;;;4.40;2.30;;;;;;;5.94;90.60;100387.80;87569;1284;96174;-68
2022/01/14 08:50:59;;;;;;;4.70;2.40;;;;;;;5.99;90.54;100384.05;87577;1284;82684;-67
2022/01/14 08:53:13;;;;;;;3.80;2.50;;;;;;;6.06;90.52;100382.40;87722;1283;80746;-59
2022/01/14 08:55:20;;;;;;;3.80;2.30;;;;;;;6.11;90.48;100383.63;87577;1284;99236;-59
2022/01/14 08:57:29;;;;;;;5.50;2.80;;;;;;;6.14;90.52;100392.13;87766;1284;86609;-59
2022/01/14 08:59:36;;;;;;;3.90;2.30;;;;;;;6.13;90.50;100384.00;87567;1284;93280;-60
2022/01/14 09:01:45;;;;;;;4.10;2.50;;;;;;;6.09;90.33;100367.60;87728;1284;78341;-59
2022/01/14 09:03:51;;;;;;;4.50;2.70;;;;;;;6.04;90.56;100381.72;87592;1284;81327;-59
2022/01/14 09:05:59;;;;;;;6.70;3.00;;;;;;;6.03;90.35;100378.77;87738;1283;100767;-60
2022/01/14 09:08:08;;;;;;;3.90;2.80;;;;;;;6.04;90.52;100373.71;87554;1284;88570;-60
2022/01/14 09:10:18;;;;;;;3.90;2.80;;;;;;;6.05;90.40;100374.59;87750;1284;94343;-59
2022/01/14 09:12:23;;;;;;;4.90;2.20;;;;;;;6.08;90.51;100372.30;87405;1287;81031;-67
2022/01/14 09:14:29;;;;;;;4.50;2.40;;;;;;;6.14;90.54;100368.27;87756;1284;82244;-66
2022/01/14 09:16:35;;;;;;;6.60;3.00;;;;;;;6.13;90.57;100374.98;87560;1284;98467;-68
2022/01/14 09:18:41;;;;;;;4.00;2.40;;;;;;;6.14;90.64;100376.50;87707;1283;87691;-69
2022/01/14 09:20:47;;;;;;;3.80;2.70;;;;;;;6.20;90.56;100380.75;87562;1284;95986;-66
2022/01/14 09:22:57;;;;;;;4.90;2.50;;;;;;;6.23;90.73;100368.83;87743;1283;78884;-59
2022/01/14 09:25:04;;;;;;;4.20;2.60;;;;;;;6.24;90.63;100367.55;87567;1284;80960;-59
2022/01/14 09:27:11;;;;;;;4.30;2.60;;;;;;;6.29;90.65;100356.70;87581;1284;100340;-69
2022/01/14 09:29:16;;;;;;;6.20;2.70;;;;;;;6.29;90.48;100367.54;87733;1284;88878;-69
2022/01/14 09:31:22;;;;;;;4.80;2.80;;;;;;;6.26;90.45;100356.86;87574;1284;94529;-70
2022/01/14 09:33:29;;;;;;;4.20;2.30;;;;;;;6.25;90.52;100361.59;87561;1284;79125;-70
2022/01/14 09:35:37;;;;;;;2.50;1.90;;;;;;;6.27;90.37;100362.06;87758;1284;81999;-70
2022/01/14 09:37:44;;;;;;;4.50;2.30;;;;;;;6.29;90.43;100346.98;87565;1284;98826;-70
2022/01/14 09:39:50;;;;;;;4.10;2.10;;;;;;;6.34;90.54;100348.10;87578;1284;88056;-72
2022/01/14 09:41:56;;;;;;;3.50;2.00;;;;;;;6.39;90.58;100350.16;87726;1284;95223;-60
2022/01/14 09:44:06;;;;;;;3.90;2.00;;;;;;;6.43;90.49;100352.86;87560;1284;80967;-59
2022/01/14 09:46:14;;;;;;;2.70;2.00;;;;;;;6.47;90.49;100355.38;87570;1284;80662;-60
2022/01/14 09:48:23;;;;;;;3.70;2.30;;;;;;;6.52;90.47;100349.39;87556;1284;100374;-59
2022/01/14 09:50:29;;;;;;;3.70;1.90;;;;;;;6.58;90.41;100344.47;87612;1284;88787;-59
2022/01/14 09:52:35;;;;;;;2.40;2.00;;;;;;;6.60;90.39;100345.30;87571;1284;95388;-59
2022/01/14 09:54:46;;;;;;;5.00;2.00;;;;;;;6.58;90.37;100340.27;87431;1285;79717;-60
2022/01/14 09:56:52;;;;;;;3.20;2.00;;;;;;;6.65;90.27;100337.38;87588;1284;82232;-61
2022/01/14 09:58:58;;;;;;;2.20;1.50;;;;;;;6.66;90.19;100343.98;87533;1282;100540;-59
2022/01/14 10:01:15;;;;;;;3.20;2.10;;;;;;;6.67;90.16;100343.27;87756;1284;88872;-63
2022/01/14 10:03:23;;;;;;;4.00;2.00;;;;;;;6.62;90.19;100338.61;87571;1284;92783;-66
2022/01/14 10:05:39;;;;;;;3.00;2.00;;;;;;;6.63;90.20;100334.21;87566;1284;79963;-65